sensor_id;sensor_type;location;lat;lon;timestamp;pressure;altitude;pressure_sealevel;temperature;humidity
40205;BME280;26963;42.666;23.366;2022-10-01T00:01:58;95327.38;;;17.14;60.07
40205;BME280;26963;42.666;23.366;2022-10-01T00:04:26;95313.66;;;17.19;60.10
40205;BME280;26963;42.666;23.366;2022-10-01T00:06:52;95325.84;;;17.34;59.70
40205;BME280;26963;42.666;23.366;2022-10-01T00:09:18;95339.50;;;16.99;60.19
40205;BME280;26963;42.666;23.366;2022-10-01T00:11:49;95367.41;;;17.29;60.20
40205;BME280;26963;42.666;23.366;2022-10-01T00:14:15;95339.44;;;17.16;59.58
40205;BME280;26963;42.666;23.366;2022-10-01T00:16:41;95368.91;;;17.09;60.57
40205;BME280;26963;42.666;23.366;2022-10-01T00:19:13;95358.06;;;17.18;60.61
40205;BME280;26963;42.666;23.366;2022-10-01T00:21:39;95351.09;;;17.08;60.21
40205;BME280;26963;42.666;23.366;2022-10-01T00:24:10;95343.75;;;17.08;60.28
40205;BME280;26963;42.666;23.366;2022-10-01T00:26:46;95324.50;;;17.10;60.13
40205;BME280;26963;42.666;23.366;2022-10-01T00:29:13;95305.66;;;16.84;60.23
40205;BME280;26963;42.666;23.366;2022-10-01T00:31:40;95359.19;;;17.17;60.51
40205;BME280;26963;42.666;23.366;2022-10-01T00:34:05;95352.19;;;17.16;60.74
40205;BME280;26963;42.666;23.366;2022-10-01T00:36:32;95362.81;;;17.21;60.45
40205;BME280;26963;42.666;23.366;2022-10-01T00:38:58;95362.34;;;17.19;60.65
40205;BME280;26963;42.666;23.366;2022-10-01T00:41:31;95301.38;;;16.83;61.04
40205;BME280;26963;42.666;23.366;2022-10-01T00:44:02;95336.56;;;17.21;59.94
40205;BME280;26963;42.666;23.366;2022-10-01T00:46:50;95326.16;;;16.93;60.54
40205;BME280;26963;42.666;23.366;2022-10-01T00:49:21;95359.81;;;17.14;60.89
40205;BME280;26963;42.666;23.366;2022-10-01T00:51:57;95329.16;;;17.01;60.56
40205;BME280;26963;42.666;23.366;2022-10-01T00:54:32;95273.31;;;16.57;61.01
40205;BME280;26963;42.666;23.366;2022-10-01T00:57:04;95303.94;;;16.70;61.01
40205;BME280;26963;42.666;23.366;2022-10-01T00:59:43;95357.16;;;16.96;61.18
40205;BME280;26963;42.666;23.366;2022-10-01T01:02:10;95309.34;;;16.70;61.33
40205;BME280;26963;42.666;23.366;2022-10-01T01:04:37;95310.63;;;16.73;61.54
40205;BME280;26963;42.666;23.366;2022-10-01T01:07:05;95319.34;;;16.78;61.63
40205;BME280;26963;42.666;23.366;2022-10-01T01:09:46;95294.06;;;16.74;61.32
40205;BME280;26963;42.666;23.366;2022-10-01T01:23:39;95327.75;;;16.77;61.86
40205;BME280;26963;42.666;23.366;2022-10-01T01:26:09;95279.84;;;16.56;62.27
40205;BME280;26963;42.666;23.366;2022-10-01T01:28:41;95294.47;;;16.46;62.13
40205;BME280;26963;42.666;23.366;2022-10-01T01:31:14;95340.19;;;16.69;63.08
40205;BME280;26963;42.666;23.366;2022-10-01T01:33:44;95234.50;;;16.14;62.78
40205;BME280;26963;42.666;23.366;2022-10-01T01:36:16;95241.66;;;16.10;63.06
40205;BME280;26963;42.666;23.366;2022-10-01T01:38:50;95286.25;;;16.34;62.91
40205;BME280;26963;42.666;23.366;2022-10-01T01:41:21;95344.00;;;16.68;62.94
40205;BME280;26963;42.666;23.366;2022-10-01T01:43:53;95353.69;;;16.60;63.15
40205;BME280;26963;42.666;23.366;2022-10-01T01:46:24;95349.41;;;16.68;63.01
40205;BME280;26963;42.666;23.366;2022-10-01T01:48:59;95343.88;;;16.65;63.48
40205;BME280;26963;42.666;23.366;2022-10-01T01:51:44;95269.22;;;16.34;62.77
40205;BME280;26963;42.666;23.366;2022-10-01T01:54:12;95365.59;;;16.68;63.15
40205;BME280;26963;42.666;23.366;2022-10-01T01:56:37;95334.94;;;16.64;63.51
40205;BME280;26963;42.666;23.366;2022-10-01T01:59:03;95196.72;;;15.79;62.92
40205;BME280;26963;42.666;23.366;2022-10-01T02:01:40;95345.78;;;16.55;63.68
40205;BME280;26963;42.666;23.366;2022-10-01T02:04:31;95325.44;;;16.49;63.91
40205;BME280;26963;42.666;23.366;2022-10-01T02:20:54;95380.44;;;16.44;63.94
40205;BME280;26963;42.666;23.366;2022-10-01T02:23:26;95384.72;;;16.45;64.26
40205;BME280;26963;42.666;23.366;2022-10-01T02:26:05;95312.59;;;16.11;63.88
40205;BME280;26963;42.666;23.366;2022-10-01T02:28:33;95325.81;;;16.04;63.62
40205;BME280;26963;42.666;23.366;2022-10-01T02:31:02;95352.31;;;16.10;64.42
40205;BME280;26963;42.666;23.366;2022-10-01T02:33:45;95366.13;;;16.26;64.47
40205;BME280;26963;42.666;23.366;2022-10-01T02:36:12;95320.22;;;15.82;64.54
40205;BME280;26963;42.666;23.366;2022-10-01T02:38:40;95372.50;;;16.30;65.10
40205;BME280;26963;42.666;23.366;2022-10-01T02:41:09;95344.03;;;15.98;65.04
40205;BME280;26963;42.666;23.366;2022-10-01T02:43:53;95402.66;;;16.33;64.90
40205;BME280;26963;42.666;23.366;2022-10-01T02:46:38;95347.38;;;16.12;64.39
40205;BME280;26963;42.666;23.366;2022-10-01T02:49:06;95370.09;;;16.46;64.02
40205;BME280;26963;42.666;23.366;2022-10-01T02:54:44;95344.53;;;16.09;64.68
40205;BME280;26963;42.666;23.366;2022-10-01T02:57:15;95401.22;;;16.53;64.75
40205;BME280;26963;42.666;23.366;2022-10-01T02:59:48;95398.53;;;16.61;64.36
40205;BME280;26963;42.666;23.366;2022-10-01T03:02:13;95349.28;;;16.21;64.62
40205;BME280;26963;42.666;23.366;2022-10-01T03:04:39;95340.88;;;16.13;64.32
40205;BME280;26963;42.666;23.366;2022-10-01T03:07:05;95382.63;;;16.60;64.27
40205;BME280;26963;42.666;23.366;2022-10-01T03:09:31;95305.16;;;16.08;64.24
40205;BME280;26963;42.666;23.366;2022-10-01T03:11:58;95351.19;;;16.46;64.25
40205;BME280;26963;42.666;23.366;2022-10-01T03:14:24;95397.06;;;16.82;64.10
40205;BME280;26963;42.666;23.366;2022-10-01T03:16:50;95384.84;;;16.75;63.25
40205;BME280;26963;42.666;23.366;2022-10-01T03:19:18;95394.84;;;16.84;63.40
40205;BME280;26963;42.666;23.366;2022-10-01T03:21:43;95387.84;;;16.83;62.84
40205;BME280;26963;42.666;23.366;2022-10-01T03:24:09;95392.75;;;16.89;62.97
40205;BME280;26963;42.666;23.366;2022-10-01T03:26:34;95362.28;;;16.71;62.28
40205;BME280;26963;42.666;23.366;2022-10-01T03:29:01;95341.63;;;16.49;62.77
40205;BME280;26963;42.666;23.366;2022-10-01T03:31:27;95397.84;;;16.82;62.90
40205;BME280;26963;42.666;23.366;2022-10-01T03:34:07;95363.75;;;16.42;63.52
40205;BME280;26963;42.666;23.366;2022-10-01T03:36:33;95385.34;;;16.42;63.84
40205;BME280;26963;42.666;23.366;2022-10-01T03:39:01;95217.47;;;15.35;64.20
40205;BME280;26963;42.666;23.366;2022-10-01T03:41:26;95349.78;;;16.05;64.86
40205;BME280;26963;42.666;23.366;2022-10-01T03:43:52;95398.38;;;16.23;65.52
40205;BME280;26963;42.666;23.366;2022-10-01T03:46:17;95388.19;;;16.28;65.41
40205;BME280;26963;42.666;23.366;2022-10-01T03:48:43;95353.72;;;15.90;65.94
40205;BME280;26963;42.666;23.366;2022-10-01T03:51:09;95405.19;;;16.11;66.19
40205;BME280;26963;42.666;23.366;2022-10-01T03:53:34;95347.69;;;15.85;66.30
40205;BME280;26963;42.666;23.366;2022-10-01T03:56:14;95359.78;;;16.22;65.55
40205;BME280;26963;42.666;23.366;2022-10-01T03:58:58;95328.75;;;15.67;66.69
40205;BME280;26963;42.666;23.366;2022-10-01T04:01:40;95396.75;;;15.95;67.65
40205;BME280;26963;42.666;23.366;2022-10-01T04:04:08;95406.25;;;15.84;67.28
40205;BME280;26963;42.666;23.366;2022-10-01T04:06:34;95314.72;;;15.47;67.35
40205;BME280;26963;42.666;23.366;2022-10-01T04:09:00;95364.69;;;15.94;67.14
40205;BME280;26963;42.666;23.366;2022-10-01T04:11:27;95358.19;;;15.95;67.20
40205;BME280;26963;42.666;23.366;2022-10-01T04:13:53;95308.09;;;15.54;66.90
40205;BME280;26963;42.666;23.366;2022-10-01T04:16:19;95358.00;;;15.82;66.89
40205;BME280;26963;42.666;23.366;2022-10-01T04:18:47;95351.97;;;15.86;66.63
40205;BME280;26963;42.666;23.366;2022-10-01T04:21:16;95379.13;;;15.98;66.51
40205;BME280;26963;42.666;23.366;2022-10-01T04:23:41;95393.72;;;15.97;66.64
40205;BME280;26963;42.666;23.366;2022-10-01T04:26:07;95387.38;;;16.02;66.18
40205;BME280;26963;42.666;23.366;2022-10-01T04:28:33;95375.16;;;15.95;65.90
40205;BME280;26963;42.666;23.366;2022-10-01T04:30:59;95375.97;;;16.13;65.89
40205;BME280;26963;42.666;23.366;2022-10-01T04:33:44;95380.59;;;16.22;65.20
40205;BME280;26963;42.666;23.366;2022-10-01T04:36:10;95285.41;;;15.55;65.54
40205;BME280;26963;42.666;23.366;2022-10-01T04:38:35;95280.66;;;15.78;65.16
40205;BME280;26963;42.666;23.366;2022-10-01T04:41:01;95369.47;;;16.32;65.18
40205;BME280;26963;42.666;23.366;2022-10-01T04:43:26;95373.09;;;16.45;65.47
40205;BME280;26963;42.666;23.366;2022-10-01T04:45:52;95369.47;;;16.50;65.23
40205;BME280;26963;42.666;23.366;2022-10-01T04:48:17;95379.78;;;16.56;65.05
40205;BME280;26963;42.666;23.366;2022-10-01T04:50:46;95369.78;;;16.57;65.02
40205;BME280;26963;42.666;23.366;2022-10-01T04:53:12;95369.13;;;16.60;64.67
40205;BME280;26963;42.666;23.366;2022-10-01T04:55:37;95394.06;;;16.74;63.86
40205;BME280;26963;42.666;23.366;2022-10-01T04:58:06;95405.34;;;16.76;63.60
40205;BME280;26963;42.666;23.366;2022-10-01T05:00:41;95392.00;;;16.80;62.70
40205;BME280;26963;42.666;23.366;2022-10-01T05:03:06;95363.06;;;16.63;62.63
40205;BME280;26963;42.666;23.366;2022-10-01T05:05:34;95348.78;;;16.71;62.91
40205;BME280;26963;42.666;23.366;2022-10-01T05:08:03;95333.72;;;16.44;62.93
40205;BME280;26963;42.666;23.366;2022-10-01T05:10:28;95382.91;;;16.93;62.78
40205;BME280;26963;42.666;23.366;2022-10-01T05:12:54;95364.38;;;16.57;63.21
40205;BME280;26963;42.666;23.366;2022-10-01T05:15:20;95376.91;;;16.70;63.85
40205;BME280;26963;42.666;23.366;2022-10-01T05:17:46;95417.09;;;16.98;63.19
40205;BME280;26963;42.666;23.366;2022-10-01T05:20:17;95360.88;;;16.47;63.30
40205;BME280;26963;42.666;23.366;2022-10-01T05:22:44;95375.47;;;16.64;63.51
40205;BME280;26963;42.666;23.366;2022-10-01T05:25:13;95418.03;;;17.11;62.78
40205;BME280;26963;42.666;23.366;2022-10-01T05:27:39;95411.19;;;17.14;62.79
40205;BME280;26963;42.666;23.366;2022-10-01T05:30:06;95407.19;;;17.20;62.37
40205;BME280;26963;42.666;23.366;2022-10-01T05:33:02;95422.13;;;17.26;62.65
40205;BME280;26963;42.666;23.366;2022-10-01T05:35:31;95361.75;;;16.87;62.29
40205;BME280;26963;42.666;23.366;2022-10-01T05:38:00;95342.69;;;16.92;61.43
40205;BME280;26963;42.666;23.366;2022-10-01T05:40:30;95383.47;;;17.25;61.24
40205;BME280;26963;42.666;23.366;2022-10-01T05:42:57;95433.75;;;17.65;61.23
40205;BME280;26963;42.666;23.366;2022-10-01T05:45:23;95425.47;;;17.70;61.22
40205;BME280;26963;42.666;23.366;2022-10-01T05:48:00;95426.50;;;17.87;60.47
40205;BME280;26963;42.666;23.366;2022-10-01T05:50:28;95422.78;;;18.00;60.71
40205;BME280;26963;42.666;23.366;2022-10-01T05:52:57;95404.28;;;18.02;60.89
40205;BME280;26963;42.666;23.366;2022-10-01T05:55:29;95406.63;;;17.83;61.42
40205;BME280;26963;42.666;23.366;2022-10-01T05:58:12;95390.22;;;17.79;62.08
40205;BME280;26963;42.666;23.366;2022-10-01T06:00:40;95402.13;;;17.57;63.18
40205;BME280;26963;42.666;23.366;2022-10-01T06:03:06;95383.78;;;17.24;62.98
40205;BME280;26963;42.666;23.366;2022-10-01T06:05:33;95377.97;;;16.87;63.71
40205;BME280;26963;42.666;23.366;2022-10-01T06:07:59;95443.63;;;17.05;64.05
40205;BME280;26963;42.666;23.366;2022-10-01T06:10:39;95435.34;;;17.10;63.87
40205;BME280;26963;42.666;23.366;2022-10-01T06:13:20;95460.94;;;17.12;64.10
40205;BME280;26963;42.666;23.366;2022-10-01T06:15:51;95398.00;;;17.03;64.07
40205;BME280;26963;42.666;23.366;2022-10-01T06:18:17;95452.03;;;17.21;63.94
40205;BME280;26963;42.666;23.366;2022-10-01T06:20:50;95456.16;;;17.27;63.40
40205;BME280;26963;42.666;23.366;2022-10-01T06:23:15;95414.41;;;16.98;62.91
40205;BME280;26963;42.666;23.366;2022-10-01T06:25:42;95473.28;;;17.49;62.91
40205;BME280;26963;42.666;23.366;2022-10-01T06:28:10;95411.47;;;17.21;62.12
40205;BME280;26963;42.666;23.366;2022-10-01T06:30:37;95441.19;;;17.38;62.63
40205;BME280;26963;42.666;23.366;2022-10-01T06:33:13;95477.75;;;17.44;62.55
40205;BME280;26963;42.666;23.366;2022-10-01T06:35:46;95483.94;;;18.01;61.95
40205;BME280;26963;42.666;23.366;2022-10-01T06:38:12;95414.72;;;18.13;60.11
40205;BME280;26963;42.666;23.366;2022-10-01T06:40:39;95381.47;;;18.33;58.76
40205;BME280;26963;42.666;23.366;2022-10-01T06:43:05;95449.78;;;19.02;58.41
40205;BME280;26963;42.666;23.366;2022-10-01T06:45:36;95443.88;;;19.34;57.30
40205;BME280;26963;42.666;23.366;2022-10-01T06:48:08;95418.53;;;19.88;55.62
40205;BME280;26963;42.666;23.366;2022-10-01T06:50:38;95428.50;;;20.49;53.40
40205;BME280;26963;42.666;23.366;2022-10-01T06:53:04;95399.19;;;20.83;52.54
40205;BME280;26963;42.666;23.366;2022-10-01T06:55:32;95413.19;;;20.98;51.54
40205;BME280;26963;42.666;23.366;2022-10-01T06:58:00;95409.41;;;21.02;50.85
40205;BME280;26963;42.666;23.366;2022-10-01T07:00:32;95445.88;;;21.58;50.55
40205;BME280;26963;42.666;23.366;2022-10-01T07:02:58;95392.22;;;21.59;49.33
40205;BME280;26963;42.666;23.366;2022-10-01T07:05:25;95350.63;;;21.14;49.52
40205;BME280;26963;42.666;23.366;2022-10-01T07:07:52;95394.13;;;21.74;49.70
40205;BME280;26963;42.666;23.366;2022-10-01T07:10:19;95356.78;;;21.75;47.74
40205;BME280;26963;42.666;23.366;2022-10-01T07:12:48;95452.66;;;22.48;47.65
40205;BME280;26963;42.666;23.366;2022-10-01T07:15:14;95484.78;;;22.94;46.90
40205;BME280;26963;42.666;23.366;2022-10-01T07:17:46;95468.78;;;23.32;46.16
40205;BME280;26963;42.666;23.366;2022-10-01T07:20:13;95455.72;;;23.64;45.14
40205;BME280;26963;42.666;23.366;2022-10-01T07:22:46;95435.78;;;24.10;43.29
40205;BME280;26963;42.666;23.366;2022-10-01T07:25:14;95435.34;;;24.62;41.67
40205;BME280;26963;42.666;23.366;2022-10-01T07:27:40;95343.91;;;24.63;40.32
40205;BME280;26963;42.666;23.366;2022-10-01T07:30:06;95462.88;;;25.78;38.21
40205;BME280;26963;42.666;23.366;2022-10-01T07:32:45;95411.09;;;26.18;37.69
40205;BME280;26963;42.666;23.366;2022-10-01T07:35:10;95421.66;;;26.82;36.37
40205;BME280;26963;42.666;23.366;2022-10-01T07:37:36;95420.22;;;27.10;35.97
40205;BME280;26963;42.666;23.366;2022-10-01T07:40:04;95439.16;;;27.48;34.37
40205;BME280;26963;42.666;23.366;2022-10-01T07:42:33;95428.19;;;27.66;33.49
40205;BME280;26963;42.666;23.366;2022-10-01T07:44:59;95422.19;;;27.17;34.32
40205;BME280;26963;42.666;23.366;2022-10-01T07:47:26;95442.06;;;26.85;34.57
40205;BME280;26963;42.666;23.366;2022-10-01T07:49:51;95416.09;;;26.68;35.61
40205;BME280;26963;42.666;23.366;2022-10-01T07:52:17;95446.75;;;26.77;35.05
40205;BME280;26963;42.666;23.366;2022-10-01T07:54:54;95440.63;;;26.39;35.64
40205;BME280;26963;42.666;23.366;2022-10-01T07:57:20;95440.56;;;25.80;36.06
40205;BME280;26963;42.666;23.366;2022-10-01T07:59:46;95439.06;;;25.07;36.93
40205;BME280;26963;42.666;23.366;2022-10-01T08:02:16;95443.03;;;24.83;38.22
40205;BME280;26963;42.666;23.366;2022-10-01T08:04:43;95453.22;;;24.55;38.71
40205;BME280;26963;42.666;23.366;2022-10-01T08:07:29;95427.97;;;24.08;39.67
40205;BME280;26963;42.666;23.366;2022-10-01T08:09:56;95433.47;;;24.12;40.25
40205;BME280;26963;42.666;23.366;2022-10-01T08:12:22;95363.53;;;23.57;40.77
40205;BME280;26963;42.666;23.366;2022-10-01T08:14:51;95402.69;;;23.69;41.08
40205;BME280;26963;42.666;23.366;2022-10-01T08:17:32;95380.56;;;23.08;43.41
40205;BME280;26963;42.666;23.366;2022-10-01T08:20:14;95390.09;;;22.94;44.10
40205;BME280;26963;42.666;23.366;2022-10-01T08:23:02;95327.81;;;22.38;43.65
40205;BME280;26963;42.666;23.366;2022-10-01T08:25:28;95341.53;;;22.06;44.41
40205;BME280;26963;42.666;23.366;2022-10-01T08:27:56;95301.72;;;21.81;45.18
40205;BME280;26963;42.666;23.366;2022-10-01T08:30:22;95383.56;;;22.24;44.40
40205;BME280;26963;42.666;23.366;2022-10-01T08:32:54;95371.81;;;22.20;44.55
40205;BME280;26963;42.666;23.366;2022-10-01T08:35:21;95284.19;;;21.15;45.53
40205;BME280;26963;42.666;23.366;2022-10-01T08:37:49;95391.66;;;21.53;47.19
40205;BME280;26963;42.666;23.366;2022-10-01T08:40:31;95361.69;;;21.21;47.10
40205;BME280;26963;42.666;23.366;2022-10-01T08:43:27;95387.97;;;21.45;47.63
40205;BME280;26963;42.666;23.366;2022-10-01T08:45:55;95358.88;;;21.17;46.79
40205;BME280;26963;42.666;23.366;2022-10-01T08:48:46;95348.63;;;21.11;48.01
40205;BME280;26963;42.666;23.366;2022-10-01T08:51:42;95372.84;;;21.48;47.50
40205;BME280;26963;42.666;23.366;2022-10-01T08:56:49;95384.50;;;21.00;49.06
40205;BME280;26963;42.666;23.366;2022-10-01T09:00:31;95378.72;;;21.02;48.85
40205;BME280;26963;42.666;23.366;2022-10-01T09:02:34;95320.72;;;20.69;50.29
40205;BME280;26963;42.666;23.366;2022-10-01T09:21:00;95469.69;;;20.64;51.27
40205;BME280;26963;42.666;23.366;2022-10-01T09:23:29;95496.75;;;20.85;51.35
40205;BME280;26963;42.666;23.366;2022-10-01T09:25:56;95492.22;;;20.89;51.71
40205;BME280;26963;42.666;23.366;2022-10-01T09:28:32;95440.81;;;20.59;51.55
40205;BME280;26963;42.666;23.366;2022-10-01T09:31:21;95506.81;;;20.97;51.65
40205;BME280;26963;42.666;23.366;2022-10-01T09:34:11;95495.31;;;21.04;51.44
40205;BME280;26963;42.666;23.366;2022-10-01T09:36:59;95492.22;;;20.89;51.56
40205;BME280;26963;42.666;23.366;2022-10-01T09:39:44;95491.09;;;20.78;53.08
40205;BME280;26963;42.666;23.366;2022-10-01T09:42:14;95510.03;;;20.62;53.66
40205;BME280;26963;42.666;23.366;2022-10-01T09:44:39;95433.00;;;20.17;53.68
40205;BME280;26963;42.666;23.366;2022-10-01T09:47:16;95490.78;;;20.54;53.46
40205;BME280;26963;42.666;23.366;2022-10-01T09:49:42;95488.88;;;20.43;54.06
40205;BME280;26963;42.666;23.366;2022-10-01T09:52:29;95479.72;;;20.35;54.87
40205;BME280;26963;42.666;23.366;2022-10-01T09:57:49;95428.22;;;19.77;54.84
40205;BME280;26963;42.666;23.366;2022-10-01T10:00:19;95454.38;;;20.18;53.16
40205;BME280;26963;42.666;23.366;2022-10-01T10:02:46;95378.91;;;19.99;53.78
40205;BME280;26963;42.666;23.366;2022-10-01T10:05:23;95422.38;;;19.99;54.57
40205;BME280;26963;42.666;23.366;2022-10-01T10:07:59;95349.75;;;19.84;53.59
40205;BME280;26963;42.666;23.366;2022-10-01T10:10:30;95367.16;;;19.95;54.04
40205;BME280;26963;42.666;23.366;2022-10-01T10:13:03;95401.38;;;20.37;53.31
40205;BME280;26963;42.666;23.366;2022-10-01T10:15:32;95390.88;;;20.23;53.65
40205;BME280;26963;42.666;23.366;2022-10-01T10:18:07;95421.81;;;20.47;53.54
40205;BME280;26963;42.666;23.366;2022-10-01T10:20:38;95420.44;;;20.53;53.55
40205;BME280;26963;42.666;23.366;2022-10-01T10:23:24;95478.66;;;20.52;54.57
40205;BME280;26963;42.666;23.366;2022-10-01T10:25:59;95442.09;;;20.49;54.97
40205;BME280;26963;42.666;23.366;2022-10-01T10:28:42;95397.59;;;20.42;56.32
40205;BME280;26963;42.666;23.366;2022-10-01T10:31:25;95419.94;;;20.23;57.36
40205;BME280;26963;42.666;23.366;2022-10-01T10:36:33;95372.81;;;19.90;57.93
40205;BME280;26963;42.666;23.366;2022-10-01T10:39:00;95381.50;;;19.96;58.12
40205;BME280;26963;42.666;23.366;2022-10-01T10:41:30;95458.78;;;20.11;58.83
40205;BME280;26963;42.666;23.366;2022-10-01T10:44:02;95365.22;;;19.59;59.28
40205;BME280;26963;42.666;23.366;2022-10-01T10:46:31;95447.38;;;19.93;59.52
40205;BME280;26963;42.666;23.366;2022-10-01T10:49:05;95388.38;;;19.68;59.14
40205;BME280;26963;42.666;23.366;2022-10-01T10:54:23;95359.47;;;19.85;59.71
40205;BME280;26963;42.666;23.366;2022-10-01T10:56:54;95401.09;;;20.01;60.55
40205;BME280;26963;42.666;23.366;2022-10-01T10:59:20;95394.19;;;20.04;60.61
40205;BME280;26963;42.666;23.366;2022-10-01T11:01:45;95349.25;;;19.82;61.31
40205;BME280;26963;42.666;23.366;2022-10-01T11:06:57;95401.66;;;19.82;61.48
40205;BME280;26963;42.666;23.366;2022-10-01T11:09:28;95401.97;;;19.68;61.99
40205;BME280;26963;42.666;23.366;2022-10-01T11:12:01;95415.34;;;19.86;63.16
40205;BME280;26963;42.666;23.366;2022-10-01T11:27:10;95320.75;;;20.29;60.19
40205;BME280;26963;42.666;23.366;2022-10-01T11:36:08;95311.72;;;20.25;62.09
40205;BME280;26963;42.666;23.366;2022-10-01T11:41:28;95301.69;;;20.13;65.31
40205;BME280;26963;42.666;23.366;2022-10-01T11:44:07;95253.78;;;19.80;66.59
40205;BME280;26963;42.666;23.366;2022-10-01T11:46:49;95261.91;;;19.80;66.33
40205;BME280;26963;42.666;23.366;2022-10-01T11:49:59;95299.16;;;20.20;66.23
40205;BME280;26963;42.666;23.366;2022-10-01T11:52:32;95264.69;;;20.36;65.76
40205;BME280;26963;42.666;23.366;2022-10-01T12:01:02;95278.78;;;20.99;65.15
40205;BME280;26963;42.666;23.366;2022-10-01T12:03:47;95270.34;;;21.04;65.03
40205;BME280;26963;42.666;23.366;2022-10-01T12:06:16;95291.03;;;21.25;64.92
40205;BME280;26963;42.666;23.366;2022-10-01T12:08:46;95277.16;;;21.14;64.52
40205;BME280;26963;42.666;23.366;2022-10-01T12:11:21;95237.63;;;21.00;64.36
40205;BME280;26963;42.666;23.366;2022-10-01T12:14:01;95242.34;;;21.04;64.16
40205;BME280;26963;42.666;23.366;2022-10-01T12:16:35;95244.78;;;21.09;64.05
40205;BME280;26963;42.666;23.366;2022-10-01T12:19:28;95265.94;;;21.31;64.25
40205;BME280;26963;42.666;23.366;2022-10-01T12:24:27;95248.81;;;21.15;63.29
40205;BME280;26963;42.666;23.366;2022-10-01T12:35:52;95220.69;;;21.59;61.90
40205;BME280;26963;42.666;23.366;2022-10-01T13:01:09;95225.94;;;21.87;62.77
40205;BME280;26963;42.666;23.366;2022-10-01T13:14:57;95120.69;;;21.20;65.46
40205;BME280;26963;42.666;23.366;2022-10-01T13:21:56;95132.75;;;21.39;66.91
40205;BME280;26963;42.666;23.366;2022-10-01T13:23:59;95119.00;;;21.51;67.07
40205;BME280;26963;42.666;23.366;2022-10-01T13:26:57;95118.75;;;21.56;65.90
40205;BME280;26963;42.666;23.366;2022-10-01T13:35:31;95061.91;;;21.35;63.33
40205;BME280;26963;42.666;23.366;2022-10-01T13:37:57;95071.34;;;21.41;63.35
40205;BME280;26963;42.666;23.366;2022-10-01T13:40:41;95130.06;;;21.78;63.90
40205;BME280;26963;42.666;23.366;2022-10-01T13:43:23;95135.34;;;21.71;64.63
40205;BME280;26963;42.666;23.366;2022-10-01T13:45:53;95139.16;;;21.86;65.72
40205;BME280;26963;42.666;23.366;2022-10-01T13:48:48;95139.47;;;22.04;65.70
40205;BME280;26963;42.666;23.366;2022-10-01T13:51:18;95071.88;;;21.66;64.94
40205;BME280;26963;42.666;23.366;2022-10-01T13:53:58;95090.19;;;21.89;65.27
40205;BME280;26963;42.666;23.366;2022-10-01T13:56:34;95110.78;;;22.10;64.91
40205;BME280;26963;42.666;23.366;2022-10-01T13:59:40;95075.44;;;21.90;63.85
40205;BME280;26963;42.666;23.366;2022-10-01T14:02:58;95108.75;;;22.26;63.35
40205;BME280;26963;42.666;23.366;2022-10-01T14:05:42;95055.19;;;21.91;63.25
40205;BME280;26963;42.666;23.366;2022-10-01T14:08:56;95047.38;;;21.90;61.84
40205;BME280;26963;42.666;23.366;2022-10-01T14:13:52;95073.63;;;22.21;62.59
40205;BME280;26963;42.666;23.366;2022-10-01T14:16:42;95061.03;;;22.13;62.93
40205;BME280;26963;42.666;23.366;2022-10-01T14:19:17;95043.41;;;22.07;63.61
40205;BME280;26963;42.666;23.366;2022-10-01T14:27:40;94986.50;;;21.78;63.84
40205;BME280;26963;42.666;23.366;2022-10-01T14:30:18;94989.28;;;21.82;62.99
40205;BME280;26963;42.666;23.366;2022-10-01T14:35:45;94930.19;;;21.40;63.26
40205;BME280;26963;42.666;23.366;2022-10-01T14:38:19;95018.03;;;22.03;63.61
40205;BME280;26963;42.666;23.366;2022-10-01T14:40:49;95023.91;;;22.05;63.71
40205;BME280;26963;42.666;23.366;2022-10-01T14:43:38;95016.50;;;22.05;63.92
40205;BME280;26963;42.666;23.366;2022-10-01T14:46:21;95013.31;;;21.99;64.26
40205;BME280;26963;42.666;23.366;2022-10-01T14:48:56;94970.28;;;21.62;64.59
40205;BME280;26963;42.666;23.366;2022-10-01T14:51:25;94950.50;;;21.65;64.83
40205;BME280;26963;42.666;23.366;2022-10-01T14:53:53;94992.19;;;21.93;64.31
40205;BME280;26963;42.666;23.366;2022-10-01T14:56:19;94973.47;;;21.91;64.24
40205;BME280;26963;42.666;23.366;2022-10-01T14:58:51;94981.78;;;21.98;64.05
40205;BME280;26963;42.666;23.366;2022-10-01T15:01:23;94971.97;;;21.94;63.62
40205;BME280;26963;42.666;23.366;2022-10-01T15:03:50;94967.31;;;21.94;63.11
40205;BME280;26963;42.666;23.366;2022-10-01T15:06:21;94960.06;;;21.79;63.33
40205;BME280;26963;42.666;23.366;2022-10-01T15:08:50;94975.78;;;21.89;63.60
40205;BME280;26963;42.666;23.366;2022-10-01T15:11:19;94955.47;;;21.83;64.19
40205;BME280;26963;42.666;23.366;2022-10-01T15:13:47;94893.94;;;21.35;64.63
40205;BME280;26963;42.666;23.366;2022-10-01T15:16:21;94948.84;;;21.61;64.64
40205;BME280;26963;42.666;23.366;2022-10-01T15:18:56;94906.16;;;21.22;64.65
40205;BME280;26963;42.666;23.366;2022-10-01T15:21:34;94957.22;;;21.52;64.87
40205;BME280;26963;42.666;23.366;2022-10-01T15:24:02;94963.84;;;21.51;64.99
40205;BME280;26963;42.666;23.366;2022-10-01T15:26:32;94958.69;;;21.46;64.68
40205;BME280;26963;42.666;23.366;2022-10-01T15:29:14;94944.41;;;21.29;65.21
40205;BME280;26963;42.666;23.366;2022-10-01T15:31:42;94966.34;;;21.40;65.47
40205;BME280;26963;42.666;23.366;2022-10-01T15:34:27;94929.38;;;21.16;65.56
40205;BME280;26963;42.666;23.366;2022-10-01T15:36:54;94973.16;;;21.30;65.31
40205;BME280;26963;42.666;23.366;2022-10-01T15:39:28;94940.56;;;21.11;66.11
40205;BME280;26963;42.666;23.366;2022-10-01T15:41:56;94952.34;;;21.18;66.79
40205;BME280;26963;42.666;23.366;2022-10-01T15:52:57;94958.00;;;21.10;68.17
40205;BME280;26963;42.666;23.366;2022-10-01T15:55:31;94942.97;;;20.96;67.89
40205;BME280;26963;42.666;23.366;2022-10-01T16:01:15;94949.00;;;21.06;68.30